AFL847 UUEE-SABE
Flight info
| Callsign | AFL847 |
|---|---|
| Flight time | N/A |
| Altitude | 30000 |
| Route | LIDRI3H/24L LIDRI T781 REPNU N858 VEPIS T526 RUHAL M863 MNS L999 PINUG T52 RAVOK L856 TOSPO/N0491F300 Z186 SKARY DCT MIKOV DCT LIMRA DCT DETSA/N0497F310 DCT NEVNI DCT BORDI DCT PADKO UM984 DIVKO G7 MAMES M984 BISBA DCT RODRA M985 MGA N851 VJF L82 RUNAX UL82 IBALU/N0496F330 UN857 TERTO N857 DEREV/N0497F340 N857 GUNET UN857 ERETU/N0499F360 UN857 IRUMI/N0493F380 UN857 NELOX UZ53 UMRUD UN741 PAPIX PAPIX2R |
| Aircraft | B772/H-SDE2E3FGHIJ5LORVWXY/LB1D1 |
Departure
| Time | 2026-05-03 20:36 |
|---|---|
| Airport | Sheremetyevo International Airport (UUEE) |
Arrival
| Time | N/A |
|---|---|
| Airport | Aeroparque Jorge Newbery (SABE) |
| Time | Latitude | Longitude | Altitude | Speed | Heading |
|---|---|---|---|---|---|
| 2026-05-03 20:15 | 55.96748 | 37.41426 | 643 ft | 0 kts | 165° |
| 2026-05-03 20:24 | 55.96764 | 37.41416 | 648 ft | 3 kts | 180° |
| 2026-05-03 20:24 | 55.96782 | 37.41418 | 648 ft | 3 kts | 178° |
| 2026-05-03 20:25 | 55.96802 | 37.41412 | 647 ft | 3 kts | 149° |
| 2026-05-03 20:25 | 55.96817 | 37.41387 | 645 ft | 3 kts | 112° |
| 2026-05-03 20:25 | 55.96821 | 37.41351 | 646 ft | 3 kts | 88° |
| 2026-05-03 20:25 | 55.96819 | 37.41315 | 645 ft | 1 kts | 75° |
| 2026-05-03 20:26 | 55.96819 | 37.41313 | 645 ft | 0 kts | 75° |
| 2026-05-03 20:29 | 55.96820 | 37.41319 | 646 ft | 2 kts | 75° |
| 2026-05-03 20:29 | 55.96827 | 37.41366 | 650 ft | 5 kts | 75° |
| 2026-05-03 20:29 | 55.96840 | 37.41446 | 644 ft | 8 kts | 64° |
| 2026-05-03 20:30 | 55.96891 | 37.41472 | 648 ft | 3 kts | 347° |
| 2026-05-03 20:30 | 55.96898 | 37.41471 | 648 ft | 6 kts | 355° |
| 2026-05-03 20:30 | 55.96937 | 37.41537 | 650 ft | 12 kts | 75° |
| 2026-05-03 20:30 | 55.96958 | 37.41682 | 649 ft | 12 kts | 76° |
| 2026-05-03 20:31 | 55.96980 | 37.41827 | 647 ft | 12 kts | 75° |
| 2026-05-03 20:31 | 55.97002 | 37.41971 | 647 ft | 12 kts | 75° |
| 2026-05-03 20:31 | 55.97025 | 37.42116 | 643 ft | 12 kts | 75° |
| 2026-05-03 20:31 | 55.97046 | 37.42261 | 648 ft | 12 kts | 76° |
| 2026-05-03 20:32 | 55.97065 | 37.42405 | 647 ft | 12 kts | 77° |
| 2026-05-03 20:32 | 55.97088 | 37.42572 | 646 ft | 15 kts | 73° |
| 2026-05-03 20:32 | 55.97120 | 37.42765 | 645 ft | 17 kts | 74° |
| 2026-05-03 20:32 | 55.97151 | 37.42963 | 646 ft | 17 kts | 75° |
| 2026-05-03 20:33 | 55.97181 | 37.43162 | 648 ft | 17 kts | 75° |
| 2026-05-03 20:33 | 55.97210 | 37.43362 | 648 ft | 17 kts | 76° |
| 2026-05-03 20:33 | 55.97239 | 37.43561 | 643 ft | 17 kts | 76° |
| 2026-05-03 20:33 | 55.97268 | 37.43761 | 644 ft | 17 kts | 75° |
| 2026-05-03 20:34 | 55.97298 | 37.43960 | 647 ft | 17 kts | 75° |
| 2026-05-03 20:34 | 55.97328 | 37.44159 | 647 ft | 17 kts | 75° |
| 2026-05-03 20:34 | 55.97358 | 37.44331 | 648 ft | 13 kts | 62° |
| 2026-05-03 20:34 | 55.97431 | 37.44413 | 646 ft | 13 kts | 6° |
| 2026-05-03 20:35 | 55.97519 | 37.44385 | 644 ft | 13 kts | 345° |
| 2026-05-03 20:35 | 55.97561 | 37.44324 | 645 ft | 6 kts | 292° |
| 2026-05-03 20:35 | 55.97557 | 37.44255 | 650 ft | 6 kts | 251° |
| 2026-05-03 20:35 | 55.97522 | 37.44040 | 643 ft | 41 kts | 255° |
| 2026-05-03 20:36 | 55.97385 | 37.43117 | 646 ft | 111 kts | 255° |
| 2026-05-03 20:36 | 55.97125 | 37.41410 | 647 ft | 172 kts | 254° |
| 2026-05-03 20:36 | 55.96798 | 37.39117 | 849 ft | 201 kts | 256° |
| 2026-05-03 20:36 | 55.96459 | 37.36677 | 1722 ft | 196 kts | 256° |
| 2026-05-03 20:37 | 55.96138 | 37.34401 | 2646 ft | 193 kts | 257° |
| 2026-05-03 20:37 | 55.95800 | 37.31980 | 2808 ft | 210 kts | 257° |
| 2026-05-03 20:37 | 55.95401 | 37.29375 | 3010 ft | 224 kts | 256° |
| 2026-05-03 20:37 | 55.94958 | 37.26587 | 3183 ft | 241 kts | 256° |
| 2026-05-03 20:38 | 55.94497 | 37.23654 | 3564 ft | 249 kts | 256° |
| 2026-05-03 20:38 | 55.94028 | 37.20641 | 4039 ft | 254 kts | 256° |
| 2026-05-03 20:38 | 55.93557 | 37.17583 | 4581 ft | 257 kts | 257° |
| 2026-05-03 20:38 | 55.93086 | 37.14502 | 5135 ft | 258 kts | 257° |
| 2026-05-03 20:39 | 55.92614 | 37.11404 | 5667 ft | 260 kts | 257° |
| 2026-05-03 20:39 | 55.92139 | 37.08283 | 6213 ft | 262 kts | 257° |
| 2026-05-03 20:39 | 55.91659 | 37.05136 | 6711 ft | 264 kts | 257° |
| 2026-05-03 20:39 | 55.91176 | 37.01974 | 7228 ft | 265 kts | 257° |
| 2026-05-03 20:40 | 55.90879 | 36.98751 | 7621 ft | 265 kts | 270° |
| 2026-05-03 20:40 | 55.90912 | 36.95438 | 8071 ft | 268 kts | 274° |
| 2026-05-03 20:40 | 55.90998 | 36.92118 | 8610 ft | 268 kts | 274° |
| 2026-05-03 20:40 | 55.91067 | 36.88796 | 9161 ft | 269 kts | 273° |
| 2026-05-03 20:41 | 55.91117 | 36.85457 | 9669 ft | 271 kts | 273° |
| 2026-05-03 20:41 | 55.91154 | 36.82087 | 10013 ft | 273 kts | 272° |
| 2026-05-03 20:41 | 55.91186 | 36.78671 | 9989 ft | 275 kts | 272° |
| 2026-05-03 20:41 | 55.91178 | 36.75276 | 9985 ft | 274 kts | 265° |